sensor_id;sensor_type;location;lat;lon;timestamp;P1;durP1;ratioP1;P2;durP2;ratioP2
17725;SDS011;8983;53.156;17.960;2023-04-01T00:00:49;27.03;;;16.57;;
17725;SDS011;8983;53.156;17.960;2023-04-01T00:03:18;25.30;;;16.50;;
17725;SDS011;8983;53.156;17.960;2023-04-01T00:05:47;25.60;;;15.90;;
17725;SDS011;8983;53.156;17.960;2023-04-01T00:08:15;27.27;;;16.60;;
17725;SDS011;8983;53.156;17.960;2023-04-01T00:10:45;21.90;;;16.10;;
17725;SDS011;8983;53.156;17.960;2023-04-01T00:13:14;23.47;;;15.93;;
17725;SDS011;8983;53.156;17.960;2023-04-01T00:15:42;21.80;;;14.87;;
17725;SDS011;8983;53.156;17.960;2023-04-01T00:18:10;25.83;;;16.03;;
17725;SDS011;8983;53.156;17.960;2023-04-01T00:20:42;22.63;;;15.53;;
17725;SDS011;8983;53.156;17.960;2023-04-01T00:23:11;21.20;;;14.77;;
17725;SDS011;8983;53.156;17.960;2023-04-01T00:25:39;24.77;;;16.30;;
17725;SDS011;8983;53.156;17.960;2023-04-01T00:28:09;28.03;;;16.03;;
17725;SDS011;8983;53.156;17.960;2023-04-01T00:30:37;25.77;;;15.47;;
17725;SDS011;8983;53.156;17.960;2023-04-01T00:33:05;24.97;;;14.17;;
17725;SDS011;8983;53.156;17.960;2023-04-01T00:35:34;21.10;;;15.27;;
17725;SDS011;8983;53.156;17.960;2023-04-01T00:38:02;26.13;;;16.07;;
17725;SDS011;8983;53.156;17.960;2023-04-01T00:40:31;27.33;;;16.03;;
17725;SDS011;8983;53.156;17.960;2023-04-01T00:43:01;28.37;;;15.57;;
17725;SDS011;8983;53.156;17.960;2023-04-01T00:45:32;24.77;;;15.57;;
17725;SDS011;8983;53.156;17.960;2023-04-01T00:48:03;23.63;;;15.00;;
17725;SDS011;8983;53.156;17.960;2023-04-01T00:50:35;22.80;;;15.50;;
17725;SDS011;8983;53.156;17.960;2023-04-01T00:53:04;20.47;;;14.07;;
17725;SDS011;8983;53.156;17.960;2023-04-01T00:55:35;23.47;;;15.30;;
17725;SDS011;8983;53.156;17.960;2023-04-01T00:58:07;24.40;;;14.57;;
17725;SDS011;8983;53.156;17.960;2023-04-01T01:00:42;19.57;;;14.03;;
17725;SDS011;8983;53.156;17.960;2023-04-01T01:03:10;24.13;;;14.83;;
17725;SDS011;8983;53.156;17.960;2023-04-01T01:05:44;23.77;;;14.73;;
17725;SDS011;8983;53.156;17.960;2023-04-01T01:08:27;24.87;;;14.50;;
17725;SDS011;8983;53.156;17.960;2023-04-01T01:11:04;24.53;;;14.10;;
17725;SDS011;8983;53.156;17.960;2023-04-01T01:13:36;27.23;;;16.37;;
17725;SDS011;8983;53.156;17.960;2023-04-01T01:16:13;25.67;;;15.17;;
17725;SDS011;8983;53.156;17.960;2023-04-01T01:18:48;25.10;;;15.40;;
17725;SDS011;8983;53.156;17.960;2023-04-01T01:27:17;23.37;;;14.43;;
17725;SDS011;8983;53.156;17.960;2023-04-01T01:30:02;24.07;;;14.13;;
17725;SDS011;8983;53.156;17.960;2023-04-01T01:32:40;25.03;;;14.57;;
17725;SDS011;8983;53.156;17.960;2023-04-01T01:35:30;20.07;;;14.37;;
17725;SDS011;8983;53.156;17.960;2023-04-01T01:38:01;23.23;;;14.90;;
17725;SDS011;8983;53.156;17.960;2023-04-01T01:40:33;20.03;;;14.07;;
17725;SDS011;8983;53.156;17.960;2023-04-01T01:43:04;18.90;;;13.93;;
17725;SDS011;8983;53.156;17.960;2023-04-01T01:45:35;21.23;;;14.03;;
17725;SDS011;8983;53.156;17.960;2023-04-01T01:48:07;20.93;;;13.93;;
17725;SDS011;8983;53.156;17.960;2023-04-01T01:50:38;21.23;;;14.27;;
17725;SDS011;8983;53.156;17.960;2023-04-01T01:53:10;19.33;;;12.90;;
17725;SDS011;8983;53.156;17.960;2023-04-01T01:55:40;18.30;;;12.43;;
17725;SDS011;8983;53.156;17.960;2023-04-01T01:58:10;19.23;;;12.17;;
17725;SDS011;8983;53.156;17.960;2023-04-01T02:00:41;18.83;;;11.77;;
17725;SDS011;8983;53.156;17.960;2023-04-01T02:03:12;16.60;;;11.97;;
17725;SDS011;8983;53.156;17.960;2023-04-01T02:05:43;15.23;;;11.17;;
17725;SDS011;8983;53.156;17.960;2023-04-01T02:08:12;14.73;;;10.50;;
17725;SDS011;8983;53.156;17.960;2023-04-01T02:10:45;13.03;;;9.80;;
17725;SDS011;8983;53.156;17.960;2023-04-01T02:13:20;12.97;;;8.70;;
17725;SDS011;8983;53.156;17.960;2023-04-01T02:15:55;13.40;;;9.20;;
17725;SDS011;8983;53.156;17.960;2023-04-01T02:18:28;10.23;;;8.40;;
17725;SDS011;8983;53.156;17.960;2023-04-01T02:20:58;10.27;;;8.50;;
17725;SDS011;8983;53.156;17.960;2023-04-01T02:23:27;10.20;;;7.63;;
17725;SDS011;8983;53.156;17.960;2023-04-01T02:25:55;11.90;;;8.43;;
17725;SDS011;8983;53.156;17.960;2023-04-01T02:28:24;13.17;;;9.27;;
17725;SDS011;8983;53.156;17.960;2023-04-01T02:30:52;12.73;;;8.47;;
17725;SDS011;8983;53.156;17.960;2023-04-01T02:33:21;11.73;;;8.37;;
17725;SDS011;8983;53.156;17.960;2023-04-01T02:35:49;11.97;;;8.77;;
17725;SDS011;8983;53.156;17.960;2023-04-01T02:38:19;9.67;;;7.63;;
17725;SDS011;8983;53.156;17.960;2023-04-01T02:40:48;9.37;;;6.87;;
17725;SDS011;8983;53.156;17.960;2023-04-01T02:43:17;9.93;;;7.13;;
17725;SDS011;8983;53.156;17.960;2023-04-01T02:45:46;10.47;;;7.30;;
17725;SDS011;8983;53.156;17.960;2023-04-01T02:48:14;10.47;;;7.20;;
17725;SDS011;8983;53.156;17.960;2023-04-01T02:50:42;8.40;;;6.70;;
17725;SDS011;8983;53.156;17.960;2023-04-01T02:53:10;9.90;;;7.20;;
17725;SDS011;8983;53.156;17.960;2023-04-01T02:55:39;8.93;;;6.73;;
17725;SDS011;8983;53.156;17.960;2023-04-01T02:58:07;8.83;;;6.70;;
17725;SDS011;8983;53.156;17.960;2023-04-01T03:00:35;9.13;;;6.70;;
17725;SDS011;8983;53.156;17.960;2023-04-01T03:03:03;9.50;;;6.37;;
17725;SDS011;8983;53.156;17.960;2023-04-01T03:05:32;9.17;;;6.80;;
17725;SDS011;8983;53.156;17.960;2023-04-01T03:08:01;8.80;;;6.47;;
17725;SDS011;8983;53.156;17.960;2023-04-01T03:10:29;8.43;;;6.93;;
17725;SDS011;8983;53.156;17.960;2023-04-01T03:12:58;11.57;;;7.63;;
17725;SDS011;8983;53.156;17.960;2023-04-01T03:15:27;11.00;;;7.50;;
17725;SDS011;8983;53.156;17.960;2023-04-01T03:17:55;10.80;;;7.37;;
17725;SDS011;8983;53.156;17.960;2023-04-01T03:20:23;10.70;;;7.30;;
17725;SDS011;8983;53.156;17.960;2023-04-01T03:22:51;10.10;;;7.10;;
17725;SDS011;8983;53.156;17.960;2023-04-01T03:25:19;12.10;;;7.90;;
17725;SDS011;8983;53.156;17.960;2023-04-01T03:27:47;9.40;;;7.10;;
17725;SDS011;8983;53.156;17.960;2023-04-01T03:30:17;14.60;;;11.20;;
17725;SDS011;8983;53.156;17.960;2023-04-01T03:32:45;14.17;;;8.60;;
17725;SDS011;8983;53.156;17.960;2023-04-01T03:35:13;11.53;;;7.93;;
17725;SDS011;8983;53.156;17.960;2023-04-01T03:37:41;15.30;;;9.77;;
17725;SDS011;8983;53.156;17.960;2023-04-01T03:40:10;11.77;;;8.63;;
17725;SDS011;8983;53.156;17.960;2023-04-01T03:42:38;11.87;;;7.17;;
17725;SDS011;8983;53.156;17.960;2023-04-01T03:45:06;11.47;;;6.93;;
17725;SDS011;8983;53.156;17.960;2023-04-01T03:47:36;11.50;;;7.17;;
17725;SDS011;8983;53.156;17.960;2023-04-01T03:50:05;12.50;;;7.23;;
17725;SDS011;8983;53.156;17.960;2023-04-01T03:52:34;10.80;;;7.20;;
17725;SDS011;8983;53.156;17.960;2023-04-01T03:55:03;11.43;;;7.27;;
17725;SDS011;8983;53.156;17.960;2023-04-01T03:57:31;12.93;;;8.33;;
17725;SDS011;8983;53.156;17.960;2023-04-01T03:59:59;13.17;;;8.47;;
17725;SDS011;8983;53.156;17.960;2023-04-01T04:02:28;14.57;;;8.20;;
17725;SDS011;8983;53.156;17.960;2023-04-01T04:04:57;10.60;;;7.47;;
17725;SDS011;8983;53.156;17.960;2023-04-01T04:07:25;12.17;;;7.63;;
17725;SDS011;8983;53.156;17.960;2023-04-01T04:09:53;12.73;;;7.27;;
17725;SDS011;8983;53.156;17.960;2023-04-01T04:12:21;13.03;;;7.60;;
17725;SDS011;8983;53.156;17.960;2023-04-01T04:14:49;15.00;;;8.70;;
17725;SDS011;8983;53.156;17.960;2023-04-01T04:17:18;13.93;;;7.67;;
17725;SDS011;8983;53.156;17.960;2023-04-01T04:19:46;11.13;;;7.87;;
17725;SDS011;8983;53.156;17.960;2023-04-01T04:22:15;15.57;;;9.00;;
17725;SDS011;8983;53.156;17.960;2023-04-01T04:24:43;13.23;;;7.60;;
17725;SDS011;8983;53.156;17.960;2023-04-01T04:27:11;15.27;;;8.87;;
17725;SDS011;8983;53.156;17.960;2023-04-01T04:29:39;13.50;;;8.00;;
17725;SDS011;8983;53.156;17.960;2023-04-01T04:32:07;13.87;;;8.03;;
17725;SDS011;8983;53.156;17.960;2023-04-01T04:34:35;14.40;;;8.63;;
17725;SDS011;8983;53.156;17.960;2023-04-01T04:37:03;12.73;;;7.83;;
17725;SDS011;8983;53.156;17.960;2023-04-01T04:39:33;13.00;;;8.33;;
17725;SDS011;8983;53.156;17.960;2023-04-01T04:42:01;15.03;;;8.80;;
17725;SDS011;8983;53.156;17.960;2023-04-01T04:44:29;14.83;;;8.37;;
17725;SDS011;8983;53.156;17.960;2023-04-01T04:46:57;17.00;;;9.73;;
17725;SDS011;8983;53.156;17.960;2023-04-01T04:49:25;15.60;;;9.17;;
17725;SDS011;8983;53.156;17.960;2023-04-01T04:51:53;16.03;;;9.20;;
17725;SDS011;8983;53.156;17.960;2023-04-01T04:54:21;18.93;;;10.23;;
17725;SDS011;8983;53.156;17.960;2023-04-01T04:56:52;18.90;;;11.10;;
17725;SDS011;8983;53.156;17.960;2023-04-01T04:59:21;20.77;;;9.80;;
17725;SDS011;8983;53.156;17.960;2023-04-01T05:01:49;19.23;;;10.20;;
17725;SDS011;8983;53.156;17.960;2023-04-01T05:04:17;17.37;;;10.07;;
17725;SDS011;8983;53.156;17.960;2023-04-01T05:06:45;19.63;;;11.33;;
17725;SDS011;8983;53.156;17.960;2023-04-01T05:09:14;19.23;;;10.27;;
17725;SDS011;8983;53.156;17.960;2023-04-01T05:11:42;17.53;;;10.57;;
17725;SDS011;8983;53.156;17.960;2023-04-01T05:14:15;22.07;;;10.67;;
17725;SDS011;8983;53.156;17.960;2023-04-01T05:16:43;20.57;;;11.70;;
17725;SDS011;8983;53.156;17.960;2023-04-01T05:19:12;21.23;;;12.23;;
17725;SDS011;8983;53.156;17.960;2023-04-01T05:21:40;23.17;;;12.37;;
17725;SDS011;8983;53.156;17.960;2023-04-01T05:24:08;21.83;;;11.70;;
17725;SDS011;8983;53.156;17.960;2023-04-01T05:26:37;21.00;;;11.57;;
17725;SDS011;8983;53.156;17.960;2023-04-01T05:29:05;19.37;;;10.83;;
17725;SDS011;8983;53.156;17.960;2023-04-01T05:31:34;18.93;;;11.00;;
17725;SDS011;8983;53.156;17.960;2023-04-01T05:34:02;20.63;;;11.70;;
17725;SDS011;8983;53.156;17.960;2023-04-01T05:36:30;20.70;;;10.70;;
17725;SDS011;8983;53.156;17.960;2023-04-01T05:38:58;20.20;;;10.87;;
17725;SDS011;8983;53.156;17.960;2023-04-01T05:41:26;20.53;;;11.67;;
17725;SDS011;8983;53.156;17.960;2023-04-01T05:43:54;18.70;;;11.20;;
17725;SDS011;8983;53.156;17.960;2023-04-01T05:46:23;20.77;;;11.67;;
17725;SDS011;8983;53.156;17.960;2023-04-01T05:48:52;19.10;;;11.53;;
17725;SDS011;8983;53.156;17.960;2023-04-01T05:51:20;19.13;;;11.47;;
17725;SDS011;8983;53.156;17.960;2023-04-01T05:53:48;24.33;;;12.53;;
17725;SDS011;8983;53.156;17.960;2023-04-01T05:56:17;24.07;;;11.13;;
17725;SDS011;8983;53.156;17.960;2023-04-01T05:58:46;19.27;;;11.33;;
17725;SDS011;8983;53.156;17.960;2023-04-01T06:01:17;20.77;;;12.60;;
17725;SDS011;8983;53.156;17.960;2023-04-01T06:03:45;20.63;;;11.33;;
17725;SDS011;8983;53.156;17.960;2023-04-01T06:06:16;16.47;;;9.70;;
17725;SDS011;8983;53.156;17.960;2023-04-01T06:08:50;14.07;;;9.47;;
17725;SDS011;8983;53.156;17.960;2023-04-01T06:11:23;13.13;;;9.00;;
17725;SDS011;8983;53.156;17.960;2023-04-01T06:14:02;11.00;;;7.63;;
17725;SDS011;8983;53.156;17.960;2023-04-01T06:16:49;16.50;;;8.63;;
17725;SDS011;8983;53.156;17.960;2023-04-01T06:19:30;14.30;;;9.50;;
17725;SDS011;8983;53.156;17.960;2023-04-01T06:22:12;12.37;;;8.33;;
17725;SDS011;8983;53.156;17.960;2023-04-01T06:28:03;14.03;;;8.47;;
17725;SDS011;8983;53.156;17.960;2023-04-01T06:30:56;12.73;;;9.00;;
17725;SDS011;8983;53.156;17.960;2023-04-01T06:33:34;10.57;;;7.30;;
17725;SDS011;8983;53.156;17.960;2023-04-01T06:36:34;12.97;;;8.70;;
17725;SDS011;8983;53.156;17.960;2023-04-01T06:39:18;13.23;;;8.20;;
17725;SDS011;8983;53.156;17.960;2023-04-01T06:42:17;10.47;;;7.57;;
17725;SDS011;8983;53.156;17.960;2023-04-01T06:44:56;10.40;;;7.90;;
17725;SDS011;8983;53.156;17.960;2023-04-01T06:47:36;10.20;;;7.43;;
17725;SDS011;8983;53.156;17.960;2023-04-01T06:50:12;8.77;;;7.33;;
17725;SDS011;8983;53.156;17.960;2023-04-01T06:52:52;8.90;;;6.80;;
17725;SDS011;8983;53.156;17.960;2023-04-01T06:55:27;9.50;;;7.57;;
17725;SDS011;8983;53.156;17.960;2023-04-01T06:58:02;8.60;;;6.77;;
17725;SDS011;8983;53.156;17.960;2023-04-01T07:00:34;12.40;;;8.10;;
17725;SDS011;8983;53.156;17.960;2023-04-01T07:03:06;10.63;;;7.50;;
17725;SDS011;8983;53.156;17.960;2023-04-01T07:05:42;12.77;;;7.57;;
17725;SDS011;8983;53.156;17.960;2023-04-01T07:08:11;10.60;;;7.60;;
17725;SDS011;8983;53.156;17.960;2023-04-01T07:10:45;10.00;;;7.20;;
17725;SDS011;8983;53.156;17.960;2023-04-01T07:13:18;10.57;;;7.60;;
17725;SDS011;8983;53.156;17.960;2023-04-01T07:16:03;10.87;;;7.97;;
17725;SDS011;8983;53.156;17.960;2023-04-01T07:18:37;12.27;;;8.57;;
17725;SDS011;8983;53.156;17.960;2023-04-01T07:21:15;10.97;;;8.03;;
17725;SDS011;8983;53.156;17.960;2023-04-01T07:23:50;12.60;;;8.40;;
17725;SDS011;8983;53.156;17.960;2023-04-01T07:26:23;14.07;;;9.60;;
17725;SDS011;8983;53.156;17.960;2023-04-01T07:28:51;11.53;;;8.83;;
17725;SDS011;8983;53.156;17.960;2023-04-01T07:31:25;13.30;;;9.80;;
17725;SDS011;8983;53.156;17.960;2023-04-01T07:34:05;12.97;;;9.87;;
17725;SDS011;8983;53.156;17.960;2023-04-01T07:36:38;13.17;;;10.20;;
17725;SDS011;8983;53.156;17.960;2023-04-01T07:39:12;14.23;;;9.97;;
17725;SDS011;8983;53.156;17.960;2023-04-01T07:41:54;13.43;;;9.73;;
17725;SDS011;8983;53.156;17.960;2023-04-01T07:44:31;14.27;;;10.07;;
17725;SDS011;8983;53.156;17.960;2023-04-01T07:47:13;14.33;;;9.67;;
17725;SDS011;8983;53.156;17.960;2023-04-01T07:49:57;13.33;;;8.70;;
17725;SDS011;8983;53.156;17.960;2023-04-01T07:52:35;13.10;;;9.17;;
17725;SDS011;8983;53.156;17.960;2023-04-01T07:55:10;12.37;;;8.50;;
17725;SDS011;8983;53.156;17.960;2023-04-01T07:57:46;12.53;;;8.47;;
17725;SDS011;8983;53.156;17.960;2023-04-01T08:00:20;11.07;;;8.33;;
17725;SDS011;8983;53.156;17.960;2023-04-01T08:02:56;11.20;;;8.30;;
17725;SDS011;8983;53.156;17.960;2023-04-01T08:05:36;10.87;;;7.23;;
17725;SDS011;8983;53.156;17.960;2023-04-01T08:08:13;8.90;;;7.00;;
17725;SDS011;8983;53.156;17.960;2023-04-01T08:10:48;9.03;;;6.30;;
17725;SDS011;8983;53.156;17.960;2023-04-01T08:13:23;8.23;;;6.43;;
17725;SDS011;8983;53.156;17.960;2023-04-01T08:16:02;11.27;;;6.70;;
17725;SDS011;8983;53.156;17.960;2023-04-01T08:18:38;9.60;;;6.70;;
17725;SDS011;8983;53.156;17.960;2023-04-01T08:21:14;8.17;;;6.27;;
17725;SDS011;8983;53.156;17.960;2023-04-01T08:23:51;10.00;;;6.57;;
17725;SDS011;8983;53.156;17.960;2023-04-01T08:26:23;8.87;;;6.23;;
17725;SDS011;8983;53.156;17.960;2023-04-01T08:29:00;8.80;;;5.97;;
17725;SDS011;8983;53.156;17.960;2023-04-01T08:31:32;7.83;;;6.07;;
17725;SDS011;8983;53.156;17.960;2023-04-01T08:34:08;8.00;;;5.80;;
17725;SDS011;8983;53.156;17.960;2023-04-01T08:36:45;7.23;;;5.70;;
17725;SDS011;8983;53.156;17.960;2023-04-01T08:39:20;6.27;;;5.30;;
17725;SDS011;8983;53.156;17.960;2023-04-01T08:42:10;6.63;;;5.20;;
17725;SDS011;8983;53.156;17.960;2023-04-01T08:45:03;6.57;;;4.70;;
17725;SDS011;8983;53.156;17.960;2023-04-01T08:47:42;6.27;;;4.83;;
17725;SDS011;8983;53.156;17.960;2023-04-01T08:50:26;6.77;;;5.10;;
17725;SDS011;8983;53.156;17.960;2023-04-01T08:53:06;5.17;;;4.30;;
17725;SDS011;8983;53.156;17.960;2023-04-01T08:55:40;5.63;;;4.50;;
17725;SDS011;8983;53.156;17.960;2023-04-01T08:58:19;6.27;;;4.33;;
17725;SDS011;8983;53.156;17.960;2023-04-01T09:01:04;5.37;;;4.77;;
17725;SDS011;8983;53.156;17.960;2023-04-01T09:03:44;4.73;;;3.93;;
17725;SDS011;8983;53.156;17.960;2023-04-01T09:06:29;6.20;;;4.43;;
17725;SDS011;8983;53.156;17.960;2023-04-01T09:09:09;6.00;;;4.20;;
17725;SDS011;8983;53.156;17.960;2023-04-01T09:11:58;4.77;;;4.20;;
17725;SDS011;8983;53.156;17.960;2023-04-01T09:14:50;5.20;;;4.20;;
17725;SDS011;8983;53.156;17.960;2023-04-01T09:20:41;6.73;;;4.60;;
17725;SDS011;8983;53.156;17.960;2023-04-01T09:23:23;4.27;;;3.40;;
17725;SDS011;8983;53.156;17.960;2023-04-01T09:26:26;4.93;;;3.73;;
17725;SDS011;8983;53.156;17.960;2023-04-01T09:29:18;3.20;;;2.90;;
17725;SDS011;8983;53.156;17.960;2023-04-01T09:32:01;3.10;;;2.67;;
17725;SDS011;8983;53.156;17.960;2023-04-01T09:34:51;3.30;;;2.97;;
17725;SDS011;8983;53.156;17.960;2023-04-01T09:37:25;3.30;;;3.00;;
17725;SDS011;8983;53.156;17.960;2023-04-01T09:40:14;3.17;;;2.67;;
17725;SDS011;8983;53.156;17.960;2023-04-01T09:42:47;3.13;;;2.67;;
17725;SDS011;8983;53.156;17.960;2023-04-01T09:45:32;2.67;;;2.47;;
17725;SDS011;8983;53.156;17.960;2023-04-01T09:48:11;2.60;;;2.40;;
17725;SDS011;8983;53.156;17.960;2023-04-01T09:50:55;2.53;;;2.33;;
17725;SDS011;8983;53.156;17.960;2023-04-01T09:53:36;2.60;;;2.40;;
17725;SDS011;8983;53.156;17.960;2023-04-01T09:56:22;2.03;;;1.93;;
17725;SDS011;8983;53.156;17.960;2023-04-01T10:05:40;4.03;;;2.63;;
17725;SDS011;8983;53.156;17.960;2023-04-01T10:08:37;2.70;;;2.50;;
17725;SDS011;8983;53.156;17.960;2023-04-01T10:11:35;2.53;;;2.13;;
17725;SDS011;8983;53.156;17.960;2023-04-01T10:14:37;2.63;;;2.43;;
17725;SDS011;8983;53.156;17.960;2023-04-01T10:17:40;4.13;;;2.40;;
17725;SDS011;8983;53.156;17.960;2023-04-01T10:23:57;3.00;;;2.57;;
17725;SDS011;8983;53.156;17.960;2023-04-01T10:26:46;3.47;;;2.80;;
17725;SDS011;8983;53.156;17.960;2023-04-01T10:32:30;2.67;;;2.47;;
17725;SDS011;8983;53.156;17.960;2023-04-01T10:35:28;2.50;;;2.13;;
17725;SDS011;8983;53.156;17.960;2023-04-01T10:41:34;3.13;;;2.70;;
17725;SDS011;8983;53.156;17.960;2023-04-01T10:44:22;4.63;;;2.37;;
17725;SDS011;8983;53.156;17.960;2023-04-01T10:47:19;3.13;;;2.73;;
17725;SDS011;8983;53.156;17.960;2023-04-01T10:50:24;3.37;;;2.60;;
17725;SDS011;8983;53.156;17.960;2023-04-01T10:53:08;3.17;;;2.83;;
17725;SDS011;8983;53.156;17.960;2023-04-01T10:59:09;3.83;;;3.00;;
17725;SDS011;8983;53.156;17.960;2023-04-01T11:02:07;3.80;;;3.10;;
17725;SDS011;8983;53.156;17.960;2023-04-01T11:05:04;3.37;;;2.97;;
17725;SDS011;8983;53.156;17.960;2023-04-01T11:11:21;3.50;;;3.20;;
17725;SDS011;8983;53.156;17.960;2023-04-01T11:17:34;3.50;;;3.10;;
17725;SDS011;8983;53.156;17.960;2023-04-01T11:20:30;4.30;;;3.50;;
17725;SDS011;8983;53.156;17.960;2023-04-01T11:23:12;5.03;;;3.63;;
17725;SDS011;8983;53.156;17.960;2023-04-01T11:25:52;5.87;;;3.73;;
17725;SDS011;8983;53.156;17.960;2023-04-01T11:28:51;5.00;;;4.00;;
17725;SDS011;8983;53.156;17.960;2023-04-01T11:31:40;4.40;;;3.83;;
17725;SDS011;8983;53.156;17.960;2023-04-01T11:34:23;5.50;;;3.80;;
17725;SDS011;8983;53.156;17.960;2023-04-01T11:37:04;4.30;;;3.73;;
17725;SDS011;8983;53.156;17.960;2023-04-01T11:39:41;5.53;;;3.67;;
17725;SDS011;8983;53.156;17.960;2023-04-01T11:42:17;6.53;;;4.00;;
17725;SDS011;8983;53.156;17.960;2023-04-01T11:44:57;4.30;;;3.83;;
17725;SDS011;8983;53.156;17.960;2023-04-01T11:47:41;5.47;;;3.90;;
17725;SDS011;8983;53.156;17.960;2023-04-01T11:50:21;3.83;;;3.20;;
17725;SDS011;8983;53.156;17.960;2023-04-01T11:53:05;4.67;;;3.47;;
17725;SDS011;8983;53.156;17.960;2023-04-01T11:55:50;5.07;;;3.63;;
17725;SDS011;8983;53.156;17.960;2023-04-01T11:58:30;5.00;;;3.87;;
17725;SDS011;8983;53.156;17.960;2023-04-01T12:01:27;5.23;;;3.13;;
17725;SDS011;8983;53.156;17.960;2023-04-01T12:07:17;3.70;;;3.27;;
17725;SDS011;8983;53.156;17.960;2023-04-01T12:09:52;3.13;;;2.83;;
17725;SDS011;8983;53.156;17.960;2023-04-01T12:12:32;4.33;;;3.60;;
17725;SDS011;8983;53.156;17.960;2023-04-01T12:15:27;4.20;;;3.40;;
17725;SDS011;8983;53.156;17.960;2023-04-01T12:18:05;4.63;;;3.50;;
17725;SDS011;8983;53.156;17.960;2023-04-01T12:20:44;4.43;;;3.40;;
17725;SDS011;8983;53.156;17.960;2023-04-01T12:23:24;4.30;;;3.63;;
17725;SDS011;8983;53.156;17.960;2023-04-01T12:26:21;3.87;;;3.37;;
17725;SDS011;8983;53.156;17.960;2023-04-01T12:29:09;4.27;;;3.23;;
17725;SDS011;8983;53.156;17.960;2023-04-01T12:31:56;3.53;;;3.23;;
17725;SDS011;8983;53.156;17.960;2023-04-01T12:34:42;3.40;;;3.10;;
17725;SDS011;8983;53.156;17.960;2023-04-01T12:37:20;3.00;;;2.80;;
17725;SDS011;8983;53.156;17.960;2023-04-01T12:39:59;3.33;;;3.00;;
17725;SDS011;8983;53.156;17.960;2023-04-01T12:42:52;3.80;;;2.90;;
17725;SDS011;8983;53.156;17.960;2023-04-01T12:45:30;3.37;;;2.70;;
17725;SDS011;8983;53.156;17.960;2023-04-01T12:48:22;2.77;;;2.37;;
17725;SDS011;8983;53.156;17.960;2023-04-01T12:51:09;3.13;;;2.83;;
17725;SDS011;8983;53.156;17.960;2023-04-01T12:54:04;3.80;;;2.93;;
17725;SDS011;8983;53.156;17.960;2023-04-01T12:56:48;3.77;;;3.00;;
17725;SDS011;8983;53.156;17.960;2023-04-01T12:59:33;2.97;;;2.53;;
17725;SDS011;8983;53.156;17.960;2023-04-01T13:02:25;4.47;;;3.10;;
17725;SDS011;8983;53.156;17.960;2023-04-01T13:05:12;3.33;;;3.03;;
17725;SDS011;8983;53.156;17.960;2023-04-01T13:08:15;3.57;;;2.83;;
17725;SDS011;8983;53.156;17.960;2023-04-01T13:10:59;4.13;;;2.80;;
17725;SDS011;8983;53.156;17.960;2023-04-01T13:16:57;2.90;;;2.60;;
17725;SDS011;8983;53.156;17.960;2023-04-01T13:19:35;3.20;;;2.87;;
17725;SDS011;8983;53.156;17.960;2023-04-01T13:22:17;3.20;;;2.90;;
17725;SDS011;8983;53.156;17.960;2023-04-01T13:24:52;3.77;;;2.70;;
17725;SDS011;8983;53.156;17.960;2023-04-01T13:27:29;3.53;;;2.60;;
17725;SDS011;8983;53.156;17.960;2023-04-01T13:30:11;2.87;;;2.57;;
17725;SDS011;8983;53.156;17.960;2023-04-01T13:32:54;3.30;;;2.83;;
17725;SDS011;8983;53.156;17.960;2023-04-01T13:35:31;3.63;;;2.90;;
17725;SDS011;8983;53.156;17.960;2023-04-01T13:38:12;2.60;;;2.40;;
17725;SDS011;8983;53.156;17.960;2023-04-01T13:41:02;3.10;;;2.67;;
17725;SDS011;8983;53.156;17.960;2023-04-01T13:43:39;3.00;;;2.70;;
17725;SDS011;8983;53.156;17.960;2023-04-01T13:46:26;3.40;;;2.67;;
17725;SDS011;8983;53.156;17.960;2023-04-01T13:49:23;2.80;;;2.60;;
17725;SDS011;8983;53.156;17.960;2023-04-01T13:52:15;3.50;;;3.20;;
17725;SDS011;8983;53.156;17.960;2023-04-01T13:57:56;4.20;;;2.57;;
17725;SDS011;8983;53.156;17.960;2023-04-01T14:00:46;3.67;;;3.10;;
17725;SDS011;8983;53.156;17.960;2023-04-01T14:03:35;3.60;;;2.90;;
17725;SDS011;8983;53.156;17.960;2023-04-01T14:06:13;3.47;;;2.90;;
17725;SDS011;8983;53.156;17.960;2023-04-01T14:08:51;4.57;;;3.47;;
17725;SDS011;8983;53.156;17.960;2023-04-01T14:11:45;5.17;;;3.40;;
17725;SDS011;8983;53.156;17.960;2023-04-01T14:14:24;4.07;;;3.20;;
17725;SDS011;8983;53.156;17.960;2023-04-01T14:17:07;3.60;;;2.83;;
17725;SDS011;8983;53.156;17.960;2023-04-01T14:19:50;5.93;;;3.90;;
17725;SDS011;8983;53.156;17.960;2023-04-01T14:22:53;3.93;;;3.50;;
17725;SDS011;8983;53.156;17.960;2023-04-01T14:28:48;3.40;;;3.10;;
17725;SDS011;8983;53.156;17.960;2023-04-01T14:31:30;4.40;;;3.10;;
17725;SDS011;8983;53.156;17.960;2023-04-01T14:34:12;3.90;;;3.60;;
17725;SDS011;8983;53.156;17.960;2023-04-01T14:37:07;3.90;;;3.27;;
17725;SDS011;8983;53.156;17.960;2023-04-01T14:39:44;3.43;;;3.10;;
17725;SDS011;8983;53.156;17.960;2023-04-01T14:42:33;4.80;;;3.50;;
17725;SDS011;8983;53.156;17.960;2023-04-01T14:48:05;7.20;;;4.80;;
17725;SDS011;8983;53.156;17.960;2023-04-01T14:50:43;7.57;;;4.73;;
17725;SDS011;8983;53.156;17.960;2023-04-01T14:53:16;5.17;;;3.40;;
17725;SDS011;8983;53.156;17.960;2023-04-01T14:55:55;3.70;;;2.90;;
17725;SDS011;8983;53.156;17.960;2023-04-01T14:58:25;3.40;;;2.97;;
17725;SDS011;8983;53.156;17.960;2023-04-01T15:01:12;3.93;;;2.80;;
17725;SDS011;8983;53.156;17.960;2023-04-01T15:03:53;3.83;;;2.80;;
17725;SDS011;8983;53.156;17.960;2023-04-01T15:06:32;3.33;;;3.03;;
17725;SDS011;8983;53.156;17.960;2023-04-01T15:09:12;3.63;;;2.70;;
17725;SDS011;8983;53.156;17.960;2023-04-01T15:11:48;4.03;;;2.97;;
17725;SDS011;8983;53.156;17.960;2023-04-01T15:14:42;3.10;;;2.80;;
17725;SDS011;8983;53.156;17.960;2023-04-01T15:17:35;4.63;;;3.13;;
17725;SDS011;8983;53.156;17.960;2023-04-01T15:20:31;3.97;;;3.27;;
17725;SDS011;8983;53.156;17.960;2023-04-01T15:23:16;3.20;;;2.90;;
17725;SDS011;8983;53.156;17.960;2023-04-01T15:26:03;6.70;;;3.50;;
17725;SDS011;8983;53.156;17.960;2023-04-01T15:28:49;4.43;;;3.33;;
17725;SDS011;8983;53.156;17.960;2023-04-01T15:31:28;9.40;;;3.40;;
17725;SDS011;8983;53.156;17.960;2023-04-01T15:36:56;7.30;;;3.77;;
17725;SDS011;8983;53.156;17.960;2023-04-01T15:39:30;6.17;;;4.03;;
17725;SDS011;8983;53.156;17.960;2023-04-01T15:42:19;5.07;;;3.83;;
17725;SDS011;8983;53.156;17.960;2023-04-01T15:44:58;8.13;;;4.00;;
17725;SDS011;8983;53.156;17.960;2023-04-01T15:47:52;6.33;;;4.00;;
17725;SDS011;8983;53.156;17.960;2023-04-01T15:50:40;6.33;;;3.33;;
17725;SDS011;8983;53.156;17.960;2023-04-01T15:53:29;5.57;;;3.73;;
17725;SDS011;8983;53.156;17.960;2023-04-01T15:56:26;7.13;;;4.00;;
17725;SDS011;8983;53.156;17.960;2023-04-01T15:59:09;4.67;;;3.50;;
17725;SDS011;8983;53.156;17.960;2023-04-01T16:01:50;4.67;;;3.73;;
17725;SDS011;8983;53.156;17.960;2023-04-01T16:04:31;5.20;;;3.60;;
17725;SDS011;8983;53.156;17.960;2023-04-01T16:07:15;4.37;;;3.40;;
17725;SDS011;8983;53.156;17.960;2023-04-01T16:10:08;4.70;;;3.30;;
17725;SDS011;8983;53.156;17.960;2023-04-01T16:12:49;6.20;;;3.47;;
17725;SDS011;8983;53.156;17.960;2023-04-01T16:15:27;4.53;;;3.00;;
17725;SDS011;8983;53.156;17.960;2023-04-01T16:21:12;5.10;;;3.40;;
17725;SDS011;8983;53.156;17.960;2023-04-01T16:23:49;3.63;;;2.90;;
17725;SDS011;8983;53.156;17.960;2023-04-01T16:26:22;5.50;;;3.30;;
17725;SDS011;8983;53.156;17.960;2023-04-01T16:28:57;4.83;;;3.10;;
17725;SDS011;8983;53.156;17.960;2023-04-01T16:31:38;4.80;;;3.03;;
17725;SDS011;8983;53.156;17.960;2023-04-01T16:34:16;4.87;;;3.17;;
17725;SDS011;8983;53.156;17.960;2023-04-01T16:36:47;3.33;;;2.80;;
17725;SDS011;8983;53.156;17.960;2023-04-01T16:39:22;4.10;;;3.20;;